Terminal Aerodrome Forecast
Issued by NWS Brownsville, TX

Home | Current Version | Previous Version | Text Only | Print | Product List | Glossary On
Versions: 1 2 3 4 5 6 7 8 9 10 11 12 13 14 15 16 17 18 19 20
000
FTUS44 KBRO 132300
TAFHRL
TAF
KHRL 132321Z 1400/1424 13015G20KT P6SM FEW040
     FM140200 14005KT P6SM SKC
     FM141400 17007KT P6SM FEW040
     FM141600 13013G18KT P6SM SCT050=

USA.gov is the U.S. government's official web portal to all federal, state and local government web resources and services.